sensor_id;sensor_type;location;lat;lon;timestamp;P1;P2;P0
77699;PMS5003;66867;42.658;23.320;2023-09-08T00:00:00;28;28;
77699;PMS5003;66867;42.658;23.320;2023-09-08T00:01:00;25;25;
77699;PMS5003;66867;42.658;23.320;2023-09-08T00:02:00;31;30;
77699;PMS5003;66867;42.658;23.320;2023-09-08T00:03:00;31;30;
77699;PMS5003;66867;42.658;23.320;2023-09-08T00:04:00;28;27;
77699;PMS5003;66867;42.658;23.320;2023-09-08T00:05:00;32;30;
77699;PMS5003;66867;42.658;23.320;2023-09-08T00:06:00;28;28;
77699;PMS5003;66867;42.658;23.320;2023-09-08T00:07:00;26;26;
77699;PMS5003;66867;42.658;23.320;2023-09-08T00:08:00;27;27;
77699;PMS5003;66867;42.658;23.320;2023-09-08T00:09:02;25;25;
77699;PMS5003;66867;42.658;23.320;2023-09-08T00:10:00;25;25;
77699;PMS5003;66867;42.658;23.320;2023-09-08T00:11:00;32;31;
77699;PMS5003;66867;42.658;23.320;2023-09-08T00:12:00;26;25;
77699;PMS5003;66867;42.658;23.320;2023-09-08T00:13:00;25;25;
77699;PMS5003;66867;42.658;23.320;2023-09-08T00:14:00;27;27;
77699;PMS5003;66867;42.658;23.320;2023-09-08T00:15:00;23;22;
77699;PMS5003;66867;42.658;23.320;2023-09-08T00:16:00;30;29;
77699;PMS5003;66867;42.658;23.320;2023-09-08T00:17:00;23;22;
77699;PMS5003;66867;42.658;23.320;2023-09-08T00:18:00;20;20;
77699;PMS5003;66867;42.658;23.320;2023-09-08T00:19:00;21;21;
77699;PMS5003;66867;42.658;23.320;2023-09-08T00:20:00;19;18;
77699;PMS5003;66867;42.658;23.320;2023-09-08T00:21:00;22;20;
77699;PMS5003;66867;42.658;23.320;2023-09-08T00:22:00;23;21;
77699;PMS5003;66867;42.658;23.320;2023-09-08T00:23:00;21;19;
77699;PMS5003;66867;42.658;23.320;2023-09-08T00:24:00;22;22;
77699;PMS5003;66867;42.658;23.320;2023-09-08T00:25:00;20;21;
77699;PMS5003;66867;42.658;23.320;2023-09-08T00:26:00;22;21;
77699;PMS5003;66867;42.658;23.320;2023-09-08T00:27:00;19;19;
77699;PMS5003;66867;42.658;23.320;2023-09-08T00:28:00;19;18;
77699;PMS5003;66867;42.658;23.320;2023-09-08T00:29:00;19;18;
77699;PMS5003;66867;42.658;23.320;2023-09-08T00:30:00;22;20;
77699;PMS5003;66867;42.658;23.320;2023-09-08T00:31:00;18;18;
77699;PMS5003;66867;42.658;23.320;2023-09-08T00:32:00;18;18;
77699;PMS5003;66867;42.658;23.320;2023-09-08T00:33:00;18;18;
77699;PMS5003;66867;42.658;23.320;2023-09-08T00:34:00;20;20;
77699;PMS5003;66867;42.658;23.320;2023-09-08T00:35:00;22;22;
77699;PMS5003;66867;42.658;23.320;2023-09-08T00:36:00;17;17;
77699;PMS5003;66867;42.658;23.320;2023-09-08T00:37:00;22;20;
77699;PMS5003;66867;42.658;23.320;2023-09-08T00:38:00;20;20;
77699;PMS5003;66867;42.658;23.320;2023-09-08T00:39:00;17;16;
77699;PMS5003;66867;42.658;23.320;2023-09-08T00:40:00;20;20;
77699;PMS5003;66867;42.658;23.320;2023-09-08T00:41:11;16;16;
77699;PMS5003;66867;42.658;23.320;2023-09-08T00:42:00;16;16;
77699;PMS5003;66867;42.658;23.320;2023-09-08T00:43:00;15;15;
77699;PMS5003;66867;42.658;23.320;2023-09-08T00:44:00;19;18;
77699;PMS5003;66867;42.658;23.320;2023-09-08T00:45:00;20;19;
77699;PMS5003;66867;42.658;23.320;2023-09-08T00:46:00;17;16;
77699;PMS5003;66867;42.658;23.320;2023-09-08T00:47:00;19;19;
77699;PMS5003;66867;42.658;23.320;2023-09-08T00:48:00;19;19;
77699;PMS5003;66867;42.658;23.320;2023-09-08T00:49:00;17;16;
77699;PMS5003;66867;42.658;23.320;2023-09-08T00:50:02;20;20;
77699;PMS5003;66867;42.658;23.320;2023-09-08T00:51:00;20;19;
77699;PMS5003;66867;42.658;23.320;2023-09-08T00:52:35;18;18;
77699;PMS5003;66867;42.658;23.320;2023-09-08T00:53:00;16;16;
77699;PMS5003;66867;42.658;23.320;2023-09-08T00:54:00;17;17;
77699;PMS5003;66867;42.658;23.320;2023-09-08T00:55:00;18;17;
77699;PMS5003;66867;42.658;23.320;2023-09-08T00:56:00;20;20;
77699;PMS5003;66867;42.658;23.320;2023-09-08T00:57:02;16;15;
77699;PMS5003;66867;42.658;23.320;2023-09-08T00:58:01;18;18;
77699;PMS5003;66867;42.658;23.320;2023-09-08T00:59:00;16;15;
77699;PMS5003;66867;42.658;23.320;2023-09-08T01:00:00;19;19;
77699;PMS5003;66867;42.658;23.320;2023-09-08T01:01:00;16;16;
77699;PMS5003;66867;42.658;23.320;2023-09-08T01:02:01;15;15;
77699;PMS5003;66867;42.658;23.320;2023-09-08T01:03:00;19;16;
77699;PMS5003;66867;42.658;23.320;2023-09-08T01:04:01;18;18;
77699;PMS5003;66867;42.658;23.320;2023-09-08T01:05:00;18;17;
77699;PMS5003;66867;42.658;23.320;2023-09-08T01:06:00;16;14;
77699;PMS5003;66867;42.658;23.320;2023-09-08T01:07:00;20;19;
77699;PMS5003;66867;42.658;23.320;2023-09-08T01:08:00;17;17;
77699;PMS5003;66867;42.658;23.320;2023-09-08T01:09:00;17;17;
77699;PMS5003;66867;42.658;23.320;2023-09-08T01:10:00;17;16;
77699;PMS5003;66867;42.658;23.320;2023-09-08T01:11:00;15;14;
77699;PMS5003;66867;42.658;23.320;2023-09-08T01:12:03;15;15;
77699;PMS5003;66867;42.658;23.320;2023-09-08T01:13:00;15;15;
77699;PMS5003;66867;42.658;23.320;2023-09-08T01:14:00;15;15;
77699;PMS5003;66867;42.658;23.320;2023-09-08T01:15:00;14;12;
77699;PMS5003;66867;42.658;23.320;2023-09-08T01:16:01;16;15;
77699;PMS5003;66867;42.658;23.320;2023-09-08T01:17:00;19;16;
77699;PMS5003;66867;42.658;23.320;2023-09-08T01:18:00;18;17;
77699;PMS5003;66867;42.658;23.320;2023-09-08T01:19:00;15;14;
77699;PMS5003;66867;42.658;23.320;2023-09-08T01:20:04;15;15;
77699;PMS5003;66867;42.658;23.320;2023-09-08T01:23:03;15;14;
77699;PMS5003;66867;42.658;23.320;2023-09-08T01:24:17;16;16;
77699;PMS5003;66867;42.658;23.320;2023-09-08T01:25:06;19;16;
77699;PMS5003;66867;42.658;23.320;2023-09-08T01:26:05;14;14;
77699;PMS5003;66867;42.658;23.320;2023-09-08T01:27:00;17;14;
77699;PMS5003;66867;42.658;23.320;2023-09-08T01:28:01;13;13;
77699;PMS5003;66867;42.658;23.320;2023-09-08T01:29:01;16;15;
77699;PMS5003;66867;42.658;23.320;2023-09-08T01:30:02;15;15;
77699;PMS5003;66867;42.658;23.320;2023-09-08T01:31:00;14;14;
77699;PMS5003;66867;42.658;23.320;2023-09-08T01:32:00;14;14;
77699;PMS5003;66867;42.658;23.320;2023-09-08T01:33:00;14;14;
77699;PMS5003;66867;42.658;23.320;2023-09-08T01:34:01;16;14;
77699;PMS5003;66867;42.658;23.320;2023-09-08T01:35:00;15;15;
77699;PMS5003;66867;42.658;23.320;2023-09-08T01:36:00;16;15;
77699;PMS5003;66867;42.658;23.320;2023-09-08T01:37:00;14;14;
77699;PMS5003;66867;42.658;23.320;2023-09-08T01:38:00;16;16;
77699;PMS5003;66867;42.658;23.320;2023-09-08T01:39:01;19;19;
77699;PMS5003;66867;42.658;23.320;2023-09-08T01:40:00;14;14;
77699;PMS5003;66867;42.658;23.320;2023-09-08T01:41:00;16;13;
77699;PMS5003;66867;42.658;23.320;2023-09-08T01:42:00;17;17;
77699;PMS5003;66867;42.658;23.320;2023-09-08T01:43:00;18;16;
77699;PMS5003;66867;42.658;23.320;2023-09-08T01:44:00;15;15;
77699;PMS5003;66867;42.658;23.320;2023-09-08T01:45:00;16;15;
77699;PMS5003;66867;42.658;23.320;2023-09-08T01:46:00;16;14;
77699;PMS5003;66867;42.658;23.320;2023-09-08T01:47:00;14;13;
77699;PMS5003;66867;42.658;23.320;2023-09-08T01:48:00;18;16;
77699;PMS5003;66867;42.658;23.320;2023-09-08T01:49:00;17;16;
77699;PMS5003;66867;42.658;23.320;2023-09-08T01:50:00;12;12;
77699;PMS5003;66867;42.658;23.320;2023-09-08T01:51:00;15;15;
77699;PMS5003;66867;42.658;23.320;2023-09-08T01:52:00;15;14;
77699;PMS5003;66867;42.658;23.320;2023-09-08T01:53:00;16;16;
77699;PMS5003;66867;42.658;23.320;2023-09-08T01:54:00;18;16;
77699;PMS5003;66867;42.658;23.320;2023-09-08T01:55:00;17;16;
77699;PMS5003;66867;42.658;23.320;2023-09-08T01:56:00;15;15;
77699;PMS5003;66867;42.658;23.320;2023-09-08T01:57:00;18;18;
77699;PMS5003;66867;42.658;23.320;2023-09-08T01:58:00;16;16;
77699;PMS5003;66867;42.658;23.320;2023-09-08T01:59:13;14;14;
77699;PMS5003;66867;42.658;23.320;2023-09-08T02:00:00;14;13;
77699;PMS5003;66867;42.658;23.320;2023-09-08T02:01:00;15;15;
77699;PMS5003;66867;42.658;23.320;2023-09-08T02:02:00;13;12;
77699;PMS5003;66867;42.658;23.320;2023-09-08T02:03:00;13;13;
77699;PMS5003;66867;42.658;23.320;2023-09-08T02:04:00;17;16;
77699;PMS5003;66867;42.658;23.320;2023-09-08T02:05:00;14;14;
77699;PMS5003;66867;42.658;23.320;2023-09-08T02:06:00;13;13;
77699;PMS5003;66867;42.658;23.320;2023-09-08T02:07:00;15;14;
77699;PMS5003;66867;42.658;23.320;2023-09-08T02:08:00;15;14;
77699;PMS5003;66867;42.658;23.320;2023-09-08T02:09:00;17;17;
77699;PMS5003;66867;42.658;23.320;2023-09-08T02:10:00;15;15;
77699;PMS5003;66867;42.658;23.320;2023-09-08T02:11:00;18;17;
77699;PMS5003;66867;42.658;23.320;2023-09-08T02:12:01;20;19;
77699;PMS5003;66867;42.658;23.320;2023-09-08T02:13:00;17;16;
77699;PMS5003;66867;42.658;23.320;2023-09-08T02:14:00;16;15;
77699;PMS5003;66867;42.658;23.320;2023-09-08T02:15:00;16;16;
77699;PMS5003;66867;42.658;23.320;2023-09-08T02:16:00;16;15;
77699;PMS5003;66867;42.658;23.320;2023-09-08T02:17:00;17;17;
77699;PMS5003;66867;42.658;23.320;2023-09-08T02:18:00;15;15;
77699;PMS5003;66867;42.658;23.320;2023-09-08T02:19:00;16;16;
77699;PMS5003;66867;42.658;23.320;2023-09-08T02:20:00;13;13;
77699;PMS5003;66867;42.658;23.320;2023-09-08T02:21:00;13;13;
77699;PMS5003;66867;42.658;23.320;2023-09-08T02:22:00;17;16;
77699;PMS5003;66867;42.658;23.320;2023-09-08T02:23:05;18;16;
77699;PMS5003;66867;42.658;23.320;2023-09-08T02:24:00;17;16;
77699;PMS5003;66867;42.658;23.320;2023-09-08T02:25:00;17;16;
77699;PMS5003;66867;42.658;23.320;2023-09-08T02:26:00;15;15;
77699;PMS5003;66867;42.658;23.320;2023-09-08T02:27:00;15;15;
77699;PMS5003;66867;42.658;23.320;2023-09-08T02:28:00;19;17;
77699;PMS5003;66867;42.658;23.320;2023-09-08T02:29:00;19;17;
77699;PMS5003;66867;42.658;23.320;2023-09-08T02:30:00;18;17;
77699;PMS5003;66867;42.658;23.320;2023-09-08T02:31:00;16;15;
77699;PMS5003;66867;42.658;23.320;2023-09-08T02:32:00;16;15;
77699;PMS5003;66867;42.658;23.320;2023-09-08T02:33:00;18;18;
77699;PMS5003;66867;42.658;23.320;2023-09-08T02:34:00;16;16;
77699;PMS5003;66867;42.658;23.320;2023-09-08T02:35:00;18;17;
77699;PMS5003;66867;42.658;23.320;2023-09-08T02:36:03;15;15;
77699;PMS5003;66867;42.658;23.320;2023-09-08T02:37:00;17;16;
77699;PMS5003;66867;42.658;23.320;2023-09-08T02:38:00;15;14;
77699;PMS5003;66867;42.658;23.320;2023-09-08T02:39:00;17;17;
77699;PMS5003;66867;42.658;23.320;2023-09-08T02:40:00;18;17;
77699;PMS5003;66867;42.658;23.320;2023-09-08T02:58:00;19;19;
77699;PMS5003;66867;42.658;23.320;2023-09-08T02:59:00;17;17;
77699;PMS5003;66867;42.658;23.320;2023-09-08T03:00:00;19;19;
77699;PMS5003;66867;42.658;23.320;2023-09-08T03:01:13;23;22;
77699;PMS5003;66867;42.658;23.320;2023-09-08T03:02:00;21;20;
77699;PMS5003;66867;42.658;23.320;2023-09-08T03:03:00;18;17;
77699;PMS5003;66867;42.658;23.320;2023-09-08T03:04:00;19;19;
77699;PMS5003;66867;42.658;23.320;2023-09-08T03:05:01;21;21;
77699;PMS5003;66867;42.658;23.320;2023-09-08T03:06:00;17;17;
77699;PMS5003;66867;42.658;23.320;2023-09-08T03:07:00;19;19;
77699;PMS5003;66867;42.658;23.320;2023-09-08T03:08:00;23;22;
77699;PMS5003;66867;42.658;23.320;2023-09-08T03:09:00;20;19;
77699;PMS5003;66867;42.658;23.320;2023-09-08T03:10:00;20;20;
77699;PMS5003;66867;42.658;23.320;2023-09-08T03:11:00;18;18;
77699;PMS5003;66867;42.658;23.320;2023-09-08T03:12:00;24;24;
77699;PMS5003;66867;42.658;23.320;2023-09-08T03:13:00;18;18;
77699;PMS5003;66867;42.658;23.320;2023-09-08T03:14:00;21;21;
77699;PMS5003;66867;42.658;23.320;2023-09-08T03:15:01;20;20;
77699;PMS5003;66867;42.658;23.320;2023-09-08T03:16:02;21;21;
77699;PMS5003;66867;42.658;23.320;2023-09-08T03:17:00;23;23;
77699;PMS5003;66867;42.658;23.320;2023-09-08T03:18:00;23;23;
77699;PMS5003;66867;42.658;23.320;2023-09-08T03:19:00;21;21;
77699;PMS5003;66867;42.658;23.320;2023-09-08T03:20:00;20;19;
77699;PMS5003;66867;42.658;23.320;2023-09-08T03:21:00;21;19;
77699;PMS5003;66867;42.658;23.320;2023-09-08T03:22:00;22;20;
77699;PMS5003;66867;42.658;23.320;2023-09-08T03:23:00;20;19;
77699;PMS5003;66867;42.658;23.320;2023-09-08T03:24:00;25;25;
77699;PMS5003;66867;42.658;23.320;2023-09-08T03:25:00;22;21;
77699;PMS5003;66867;42.658;23.320;2023-09-08T03:26:00;18;18;
77699;PMS5003;66867;42.658;23.320;2023-09-08T03:27:00;19;19;
77699;PMS5003;66867;42.658;23.320;2023-09-08T03:28:00;23;22;
77699;PMS5003;66867;42.658;23.320;2023-09-08T03:29:00;21;21;
77699;PMS5003;66867;42.658;23.320;2023-09-08T03:30:00;19;19;
77699;PMS5003;66867;42.658;23.320;2023-09-08T03:31:01;23;21;
77699;PMS5003;66867;42.658;23.320;2023-09-08T03:32:00;22;22;
77699;PMS5003;66867;42.658;23.320;2023-09-08T03:33:00;24;23;
77699;PMS5003;66867;42.658;23.320;2023-09-08T03:34:00;22;21;
77699;PMS5003;66867;42.658;23.320;2023-09-08T03:35:00;24;23;
77699;PMS5003;66867;42.658;23.320;2023-09-08T03:36:00;24;23;
77699;PMS5003;66867;42.658;23.320;2023-09-08T03:37:00;23;22;
77699;PMS5003;66867;42.658;23.320;2023-09-08T03:38:00;20;18;
77699;PMS5003;66867;42.658;23.320;2023-09-08T03:39:00;21;20;
77699;PMS5003;66867;42.658;23.320;2023-09-08T03:40:00;22;22;
77699;PMS5003;66867;42.658;23.320;2023-09-08T03:41:00;21;21;
77699;PMS5003;66867;42.658;23.320;2023-09-08T03:42:01;27;25;
77699;PMS5003;66867;42.658;23.320;2023-09-08T03:43:00;21;21;
77699;PMS5003;66867;42.658;23.320;2023-09-08T03:44:00;21;21;
77699;PMS5003;66867;42.658;23.320;2023-09-08T03:45:00;20;19;
77699;PMS5003;66867;42.658;23.320;2023-09-08T03:46:00;22;21;
77699;PMS5003;66867;42.658;23.320;2023-09-08T03:47:00;24;23;
77699;PMS5003;66867;42.658;23.320;2023-09-08T03:48:00;24;22;
77699;PMS5003;66867;42.658;23.320;2023-09-08T03:49:00;34;31;
77699;PMS5003;66867;42.658;23.320;2023-09-08T03:50:00;24;22;
77699;PMS5003;66867;42.658;23.320;2023-09-08T03:51:00;25;22;
77699;PMS5003;66867;42.658;23.320;2023-09-08T03:52:00;26;26;
77699;PMS5003;66867;42.658;23.320;2023-09-08T03:53:00;26;26;
77699;PMS5003;66867;42.658;23.320;2023-09-08T03:54:00;22;22;
77699;PMS5003;66867;42.658;23.320;2023-09-08T03:55:00;25;24;
77699;PMS5003;66867;42.658;23.320;2023-09-08T03:56:00;26;25;
77699;PMS5003;66867;42.658;23.320;2023-09-08T03:57:00;21;20;
77699;PMS5003;66867;42.658;23.320;2023-09-08T03:58:00;25;24;
77699;PMS5003;66867;42.658;23.320;2023-09-08T03:59:00;20;20;
77699;PMS5003;66867;42.658;23.320;2023-09-08T04:00:00;23;23;
77699;PMS5003;66867;42.658;23.320;2023-09-08T04:01:00;23;23;
77699;PMS5003;66867;42.658;23.320;2023-09-08T04:02:00;24;23;
77699;PMS5003;66867;42.658;23.320;2023-09-08T04:03:00;20;19;
77699;PMS5003;66867;42.658;23.320;2023-09-08T04:04:00;24;23;
77699;PMS5003;66867;42.658;23.320;2023-09-08T04:05:00;22;22;
77699;PMS5003;66867;42.658;23.320;2023-09-08T04:06:00;24;24;
77699;PMS5003;66867;42.658;23.320;2023-09-08T04:07:00;19;19;
77699;PMS5003;66867;42.658;23.320;2023-09-08T04:08:00;21;19;
77699;PMS5003;66867;42.658;23.320;2023-09-08T04:09:00;23;19;
77699;PMS5003;66867;42.658;23.320;2023-09-08T04:10:00;20;19;
77699;PMS5003;66867;42.658;23.320;2023-09-08T04:11:00;18;18;
77699;PMS5003;66867;42.658;23.320;2023-09-08T04:12:00;23;23;
77699;PMS5003;66867;42.658;23.320;2023-09-08T04:13:00;21;20;
77699;PMS5003;66867;42.658;23.320;2023-09-08T04:14:00;18;17;
77699;PMS5003;66867;42.658;23.320;2023-09-08T04:15:00;21;20;
77699;PMS5003;66867;42.658;23.320;2023-09-08T04:16:00;22;20;
77699;PMS5003;66867;42.658;23.320;2023-09-08T04:17:00;24;23;
77699;PMS5003;66867;42.658;23.320;2023-09-08T04:18:00;18;18;
77699;PMS5003;66867;42.658;23.320;2023-09-08T04:19:00;20;19;
77699;PMS5003;66867;42.658;23.320;2023-09-08T04:20:00;25;23;
77699;PMS5003;66867;42.658;23.320;2023-09-08T04:21:00;21;21;
77699;PMS5003;66867;42.658;23.320;2023-09-08T04:22:00;24;23;
77699;PMS5003;66867;42.658;23.320;2023-09-08T04:23:00;23;22;
77699;PMS5003;66867;42.658;23.320;2023-09-08T04:24:00;22;21;
77699;PMS5003;66867;42.658;23.320;2023-09-08T04:25:00;21;19;
77699;PMS5003;66867;42.658;23.320;2023-09-08T04:26:00;23;22;
77699;PMS5003;66867;42.658;23.320;2023-09-08T04:27:00;21;21;
77699;PMS5003;66867;42.658;23.320;2023-09-08T04:28:00;24;22;
77699;PMS5003;66867;42.658;23.320;2023-09-08T04:29:00;22;21;
77699;PMS5003;66867;42.658;23.320;2023-09-08T04:30:00;24;23;
77699;PMS5003;66867;42.658;23.320;2023-09-08T04:31:00;20;19;
77699;PMS5003;66867;42.658;23.320;2023-09-08T04:32:00;24;22;
77699;PMS5003;66867;42.658;23.320;2023-09-08T04:33:00;24;21;
77699;PMS5003;66867;42.658;23.320;2023-09-08T04:34:00;19;19;
77699;PMS5003;66867;42.658;23.320;2023-09-08T04:35:00;19;19;
77699;PMS5003;66867;42.658;23.320;2023-09-08T04:36:00;23;22;
77699;PMS5003;66867;42.658;23.320;2023-09-08T04:37:00;21;20;
77699;PMS5003;66867;42.658;23.320;2023-09-08T04:38:00;23;23;
77699;PMS5003;66867;42.658;23.320;2023-09-08T04:39:00;22;22;
77699;PMS5003;66867;42.658;23.320;2023-09-08T04:40:00;20;20;
77699;PMS5003;66867;42.658;23.320;2023-09-08T04:41:00;24;24;
77699;PMS5003;66867;42.658;23.320;2023-09-08T04:42:00;28;27;
77699;PMS5003;66867;42.658;23.320;2023-09-08T04:43:00;21;21;
77699;PMS5003;66867;42.658;23.320;2023-09-08T04:44:00;30;27;
77699;PMS5003;66867;42.658;23.320;2023-09-08T04:45:00;41;35;
77699;PMS5003;66867;42.658;23.320;2023-09-08T04:46:00;30;27;
77699;PMS5003;66867;42.658;23.320;2023-09-08T04:47:00;29;28;
77699;PMS5003;66867;42.658;23.320;2023-09-08T04:48:00;24;23;
77699;PMS5003;66867;42.658;23.320;2023-09-08T04:49:00;26;26;
77699;PMS5003;66867;42.658;23.320;2023-09-08T04:50:00;31;30;
77699;PMS5003;66867;42.658;23.320;2023-09-08T04:51:00;31;29;
77699;PMS5003;66867;42.658;23.320;2023-09-08T04:52:00;25;24;
77699;PMS5003;66867;42.658;23.320;2023-09-08T04:53:00;26;25;
77699;PMS5003;66867;42.658;23.320;2023-09-08T04:54:00;26;23;
77699;PMS5003;66867;42.658;23.320;2023-09-08T04:55:00;23;23;
77699;PMS5003;66867;42.658;23.320;2023-09-08T04:56:00;24;24;
77699;PMS5003;66867;42.658;23.320;2023-09-08T04:57:00;23;22;
77699;PMS5003;66867;42.658;23.320;2023-09-08T04:58:00;23;23;
77699;PMS5003;66867;42.658;23.320;2023-09-08T04:59:00;21;20;
77699;PMS5003;66867;42.658;23.320;2023-09-08T05:00:00;19;19;
77699;PMS5003;66867;42.658;23.320;2023-09-08T05:01:00;22;21;
77699;PMS5003;66867;42.658;23.320;2023-09-08T05:02:00;24;24;
77699;PMS5003;66867;42.658;23.320;2023-09-08T05:03:00;27;26;
77699;PMS5003;66867;42.658;23.320;2023-09-08T05:04:00;22;22;
77699;PMS5003;66867;42.658;23.320;2023-09-08T05:05:00;23;23;
77699;PMS5003;66867;42.658;23.320;2023-09-08T05:06:00;28;26;
77699;PMS5003;66867;42.658;23.320;2023-09-08T05:07:00;19;19;
77699;PMS5003;66867;42.658;23.320;2023-09-08T05:08:00;21;21;
77699;PMS5003;66867;42.658;23.320;2023-09-08T05:09:00;26;24;
77699;PMS5003;66867;42.658;23.320;2023-09-08T05:10:00;22;22;
77699;PMS5003;66867;42.658;23.320;2023-09-08T05:11:00;22;22;
77699;PMS5003;66867;42.658;23.320;2023-09-08T05:12:00;25;23;
77699;PMS5003;66867;42.658;23.320;2023-09-08T05:13:00;26;23;
77699;PMS5003;66867;42.658;23.320;2023-09-08T05:14:02;23;22;
77699;PMS5003;66867;42.658;23.320;2023-09-08T05:15:00;22;21;
77699;PMS5003;66867;42.658;23.320;2023-09-08T05:16:00;21;21;
77699;PMS5003;66867;42.658;23.320;2023-09-08T05:17:00;27;26;
77699;PMS5003;66867;42.658;23.320;2023-09-08T05:18:00;23;22;
77699;PMS5003;66867;42.658;23.320;2023-09-08T05:19:00;21;21;
77699;PMS5003;66867;42.658;23.320;2023-09-08T05:20:00;22;22;
77699;PMS5003;66867;42.658;23.320;2023-09-08T05:21:00;25;24;
77699;PMS5003;66867;42.658;23.320;2023-09-08T05:22:00;22;21;
77699;PMS5003;66867;42.658;23.320;2023-09-08T05:23:00;22;22;
77699;PMS5003;66867;42.658;23.320;2023-09-08T05:24:00;22;22;
77699;PMS5003;66867;42.658;23.320;2023-09-08T05:25:00;19;18;
77699;PMS5003;66867;42.658;23.320;2023-09-08T05:26:00;20;20;
77699;PMS5003;66867;42.658;23.320;2023-09-08T05:27:00;19;18;
77699;PMS5003;66867;42.658;23.320;2023-09-08T05:28:00;21;18;
77699;PMS5003;66867;42.658;23.320;2023-09-08T05:29:00;19;19;
77699;PMS5003;66867;42.658;23.320;2023-09-08T05:30:00;18;16;
77699;PMS5003;66867;42.658;23.320;2023-09-08T05:31:00;17;16;
77699;PMS5003;66867;42.658;23.320;2023-09-08T05:32:00;20;19;
77699;PMS5003;66867;42.658;23.320;2023-09-08T05:33:00;17;17;
77699;PMS5003;66867;42.658;23.320;2023-09-08T05:34:00;21;21;
77699;PMS5003;66867;42.658;23.320;2023-09-08T05:35:00;20;19;
77699;PMS5003;66867;42.658;23.320;2023-09-08T05:36:00;20;17;
77699;PMS5003;66867;42.658;23.320;2023-09-08T05:37:00;18;17;
77699;PMS5003;66867;42.658;23.320;2023-09-08T05:38:00;18;18;
77699;PMS5003;66867;42.658;23.320;2023-09-08T05:39:00;18;17;
77699;PMS5003;66867;42.658;23.320;2023-09-08T05:40:00;20;20;
77699;PMS5003;66867;42.658;23.320;2023-09-08T05:41:00;18;18;
77699;PMS5003;66867;42.658;23.320;2023-09-08T05:42:00;21;20;
77699;PMS5003;66867;42.658;23.320;2023-09-08T05:43:00;19;19;
77699;PMS5003;66867;42.658;23.320;2023-09-08T05:44:00;17;17;
77699;PMS5003;66867;42.658;23.320;2023-09-08T05:45:00;19;17;
77699;PMS5003;66867;42.658;23.320;2023-09-08T05:46:00;22;21;
77699;PMS5003;66867;42.658;23.320;2023-09-08T05:47:00;17;17;
77699;PMS5003;66867;42.658;23.320;2023-09-08T05:48:01;19;18;
77699;PMS5003;66867;42.658;23.320;2023-09-08T05:49:00;17;17;
77699;PMS5003;66867;42.658;23.320;2023-09-08T05:50:00;19;18;
77699;PMS5003;66867;42.658;23.320;2023-09-08T05:51:00;19;17;
77699;PMS5003;66867;42.658;23.320;2023-09-08T05:52:00;18;16;
77699;PMS5003;66867;42.658;23.320;2023-09-08T05:53:00;14;14;
77699;PMS5003;66867;42.658;23.320;2023-09-08T05:54:00;15;15;
77699;PMS5003;66867;42.658;23.320;2023-09-08T05:55:00;19;16;
77699;PMS5003;66867;42.658;23.320;2023-09-08T05:56:00;19;19;
77699;PMS5003;66867;42.658;23.320;2023-09-08T05:57:00;16;15;
77699;PMS5003;66867;42.658;23.320;2023-09-08T05:58:00;14;13;
77699;PMS5003;66867;42.658;23.320;2023-09-08T05:59:00;16;16;
77699;PMS5003;66867;42.658;23.320;2023-09-08T06:00:01;13;13;
77699;PMS5003;66867;42.658;23.320;2023-09-08T06:01:01;16;15;
77699;PMS5003;66867;42.658;23.320;2023-09-08T06:02:00;15;14;
77699;PMS5003;66867;42.658;23.320;2023-09-08T06:03:00;17;16;
77699;PMS5003;66867;42.658;23.320;2023-09-08T06:04:00;15;15;
77699;PMS5003;66867;42.658;23.320;2023-09-08T06:05:00;14;14;
77699;PMS5003;66867;42.658;23.320;2023-09-08T06:06:00;16;15;
77699;PMS5003;66867;42.658;23.320;2023-09-08T06:07:00;17;16;
77699;PMS5003;66867;42.658;23.320;2023-09-08T06:08:00;18;17;
77699;PMS5003;66867;42.658;23.320;2023-09-08T06:09:00;17;17;
77699;PMS5003;66867;42.658;23.320;2023-09-08T06:10:00;17;16;
77699;PMS5003;66867;42.658;23.320;2023-09-08T06:11:00;15;15;
77699;PMS5003;66867;42.658;23.320;2023-09-08T06:12:00;16;16;
77699;PMS5003;66867;42.658;23.320;2023-09-08T06:13:00;16;16;
77699;PMS5003;66867;42.658;23.320;2023-09-08T06:14:00;15;15;
77699;PMS5003;66867;42.658;23.320;2023-09-08T06:15:02;18;17;
77699;PMS5003;66867;42.658;23.320;2023-09-08T06:16:00;19;19;
77699;PMS5003;66867;42.658;23.320;2023-09-08T06:17:00;15;14;
77699;PMS5003;66867;42.658;23.320;2023-09-08T06:18:00;15;15;
77699;PMS5003;66867;42.658;23.320;2023-09-08T06:19:00;16;16;
77699;PMS5003;66867;42.658;23.320;2023-09-08T06:20:00;15;15;
77699;PMS5003;66867;42.658;23.320;2023-09-08T06:21:00;18;18;
77699;PMS5003;66867;42.658;23.320;2023-09-08T06:22:00;15;15;
77699;PMS5003;66867;42.658;23.320;2023-09-08T06:23:00;17;16;
77699;PMS5003;66867;42.658;23.320;2023-09-08T06:24:00;18;17;
77699;PMS5003;66867;42.658;23.320;2023-09-08T06:25:00;17;16;
77699;PMS5003;66867;42.658;23.320;2023-09-08T06:26:00;18;18;
77699;PMS5003;66867;42.658;23.320;2023-09-08T06:27:01;16;15;
77699;PMS5003;66867;42.658;23.320;2023-09-08T06:28:00;12;12;
77699;PMS5003;66867;42.658;23.320;2023-09-08T06:29:00;15;14;
77699;PMS5003;66867;42.658;23.320;2023-09-08T06:30:00;14;13;
77699;PMS5003;66867;42.658;23.320;2023-09-08T06:31:00;14;14;
77699;PMS5003;66867;42.658;23.320;2023-09-08T06:32:00;12;12;
77699;PMS5003;66867;42.658;23.320;2023-09-08T06:33:00;14;14;
77699;PMS5003;66867;42.658;23.320;2023-09-08T06:34:00;13;13;
77699;PMS5003;66867;42.658;23.320;2023-09-08T06:35:00;14;14;
77699;PMS5003;66867;42.658;23.320;2023-09-08T06:36:00;13;13;
77699;PMS5003;66867;42.658;23.320;2023-09-08T06:37:00;11;11;
77699;PMS5003;66867;42.658;23.320;2023-09-08T06:38:00;18;16;
77699;PMS5003;66867;42.658;23.320;2023-09-08T06:39:00;16;14;
77699;PMS5003;66867;42.658;23.320;2023-09-08T06:40:00;14;13;
77699;PMS5003;66867;42.658;23.320;2023-09-08T06:41:00;15;15;
77699;PMS5003;66867;42.658;23.320;2023-09-08T06:42:00;15;13;
77699;PMS5003;66867;42.658;23.320;2023-09-08T06:43:00;13;13;
77699;PMS5003;66867;42.658;23.320;2023-09-08T06:44:00;15;13;
77699;PMS5003;66867;42.658;23.320;2023-09-08T06:45:01;15;14;
77699;PMS5003;66867;42.658;23.320;2023-09-08T06:46:00;11;11;
77699;PMS5003;66867;42.658;23.320;2023-09-08T06:47:00;13;13;
77699;PMS5003;66867;42.658;23.320;2023-09-08T06:48:00;12;12;
77699;PMS5003;66867;42.658;23.320;2023-09-08T06:49:00;13;13;
77699;PMS5003;66867;42.658;23.320;2023-09-08T06:50:00;12;12;